Neptune — 2DZH6 — position and weather

sailwx.info

Track history (hours):
 
Tides and Currents Weather Stations Pressure Air Temp Water Temp Dewpoint Dewpoint Depression Visibility Wind Speed Wind Dir Waves Ship Positions

Neptune

Last reported at 2016-Feb-09 13:24 UTC. Time now 2016-Feb-14 10:09 UTC.
Position N 36°08' W 005°27'.

Length 36 m; draft 2.4 m.

Type: Pollution control. MMSI: 235083196.

Date/timePositionNaut miles runAvg speedWind from/ knotsBaromVisibWave heightAir tempDewpointWater temp
2016-Feb-09 13:24N 36°08' W 005°27'  
2016-Feb-06 22:28N 36°08' W 005°26'3 0.4
2016-Feb-06 15:27N 36°10' W 005°23'0 0.1
2016-Feb-06 14:33N 36°10' W 005°23'0 0.0
2016-Feb-06 13:32N 36°10' W 005°23'0 0.1
2016-Feb-06 12:33N 36°10' W 005°24'3 0.2
2016-Feb-05 18:11N 36°08' W 005°26'1 1.1
2016-Feb-05 17:33N 36°09' W 005°26'0 0.3
2016-Feb-05 16:30N 36°09' W 005°26'0 0.0
2016-Feb-05 15:30N 36°09' W 005°26'0 0.0
2016-Feb-05 14:33N 36°09' W 005°26'0 0.1
2016-Feb-05 13:33N 36°09' W 005°26'0 0.1
2016-Feb-05 12:29N 36°09' W 005°26'0 0.1
2016-Feb-05 11:26N 36°09' W 005°26'0 0.1
2016-Feb-05 10:14N 36°09' W 005°26'0 0.1
2016-Feb-05 09:33N 36°09' W 005°26'0 0.3
2016-Feb-05 08:29N 36°09' W 005°26'1 0.7
2016-Feb-05 07:32N 36°08' W 005°26'0 0.1
2016-Feb-05 06:33N 36°08' W 005°26'0 0.0
2016-Feb-04 12:10N 36°08' W 005°27'  
Track history (hours):
 
Tides and Currents Weather Stations Pressure Air Temp Water Temp Dewpoint Dewpoint Depression Visibility Wind Speed Wind Dir Waves Ship Positions

Neptune

Last reported at 2016-Feb-09 13:24 UTC. Time now 2016-Feb-14 10:09 UTC.
Position N 36°08' W 005°27'.

Length 36 m; draft 2.4 m.

Type: Pollution control. MMSI: 235083196.

Date/timePositionNaut miles runAvg speedWind from/ knotsBaromVisibWave heightAir tempDewpointWater temp
2016-Feb-09 13:24N 36°08' W 005°27'  
2016-Feb-06 22:28N 36°08' W 005°26'3 0.4
2016-Feb-06 15:27N 36°10' W 005°23'0 0.1
2016-Feb-06 14:33N 36°10' W 005°23'0 0.0
2016-Feb-06 13:32N 36°10' W 005°23'0 0.1
2016-Feb-06 12:33N 36°10' W 005°24'3 0.2
2016-Feb-05 18:11N 36°08' W 005°26'1 1.1
2016-Feb-05 17:33N 36°09' W 005°26'0 0.3
2016-Feb-05 16:30N 36°09' W 005°26'0 0.0
2016-Feb-05 15:30N 36°09' W 005°26'0 0.0
2016-Feb-05 14:33N 36°09' W 005°26'0 0.1
2016-Feb-05 13:33N 36°09' W 005°26'0 0.1
2016-Feb-05 12:29N 36°09' W 005°26'0 0.1
2016-Feb-05 11:26N 36°09' W 005°26'0 0.1
2016-Feb-05 10:14N 36°09' W 005°26'0 0.1
2016-Feb-05 09:33N 36°09' W 005°26'0 0.3
2016-Feb-05 08:29N 36°09' W 005°26'1 0.7
2016-Feb-05 07:32N 36°08' W 005°26'0 0.1
2016-Feb-05 06:33N 36°08' W 005°26'0 0.0
2016-Feb-04 12:10N 36°08' W 005°27'  

Dump ship's entire track history